Terminal Aerodrome Forecast
Issued by NWS

Home | Current Version | Previous Version | Text Only | Print | Product List | Glossary On
Versions: 1 2 3 4 5 6 7 8 9 10 11 12 13 14 15 16 17 18 19 20 21 22 23 24
000
FTUS41 KPBZ 222300
TAFFKL
TAF
KFKL 222340Z 2300/2324 29005KT P6SM OVC035
     FM230300 VRB03KT P6SM SCT035
     FM230900 00000KT 1SM BR SCT002
     FM231400 VRB03KT P6SM SCT040
      AMD LTD TO CLD VIS AND WIND=

USA.gov is the U.S. government's official web portal to all federal, state and local government web resources and services.